KBKW/BKW METAR and TAF weather

Enter ICAO airport designator
Station Type Date Time Source
KBKW METAR 2020/03/29 19:51 UTC NOAA

KBKW 291951Z AUTO 25020G30KT 10SM CLR 23/04 A2990 RMK AO2 PK WND 24037/1907 SLP094 T02330039


Station Type Date Time Source
KBKW Decoded METAR 2020/03/29 19:51 UTC NOAA

RALEIGH COUNTY MEM AIRPORT , WV, United States (KBKW) 37-48N 081-07W 764M
Mar 29, 2020 - 03:51 PM EDT / 2020.03.29 1951 UTC
Wind: from the WSW (250 degrees) at 23 MPH (20 KT) gusting to 35 MPH (30 KT):0
Visibility: 10 mile(s):0
Sky conditions: clear
Temperature: 73.9 F (23.3 C)
Dew Point: 39.0 F (3.9 C)
Relative Humidity: 28%
Pressure (altimeter): 29.9 in. Hg (1012 hPa)
ob: KBKW 291951Z AUTO 25020G30KT 10SM CLR 23/04 A2990 RMK AO2 PK WND 24037/1907 SLP094 T02330039
cycle: 20

Station Type Date Time Source
KBKW TAF 2020/03/29 18:24 UTC NOAA

TAF KBKW 291720Z 2918/3018 24013G26KT P6SM FEW040
FM300200 27010G20KT P6SM FEW200

Example: see airport list